createdAt,value
2023-05-23T00:01:22.858Z,15.20
2023-05-23T00:03:50.066Z,15.00
2023-05-23T00:06:21.326Z,15.00
2023-05-23T00:08:48.303Z,14.90
2023-05-23T00:11:15.437Z,18.40
2023-05-23T00:13:42.394Z,16.00
2023-05-23T00:16:09.831Z,16.90
2023-05-23T00:18:36.994Z,17.70
2023-05-23T00:21:03.926Z,15.10
2023-05-23T00:23:30.838Z,15.10
2023-05-23T00:25:58.487Z,16.20
2023-05-23T00:28:25.976Z,15.00
2023-05-23T00:30:52.790Z,15.10
2023-05-23T00:33:22.473Z,15.30
2023-05-23T00:35:49.706Z,15.10
2023-05-23T00:38:16.883Z,15.20
2023-05-23T00:40:43.591Z,14.90
2023-05-23T00:43:10.620Z,16.80
2023-05-23T00:45:37.392Z,14.90
2023-05-23T00:48:04.615Z,15.00
2023-05-23T00:50:31.660Z,14.90
2023-05-23T00:52:59.356Z,15.00
2023-05-23T00:55:26.088Z,15.60
2023-05-23T00:57:55.650Z,16.60
2023-05-23T01:00:23.311Z,14.90
2023-05-23T01:02:53.969Z,18.30
2023-05-23T01:05:22.833Z,14.90
2023-05-23T01:07:50.425Z,14.80
2023-05-23T01:10:19.215Z,14.80
2023-05-23T01:12:46.469Z,14.80
2023-05-23T01:15:15.508Z,16.00
2023-05-23T01:17:50.899Z,15.90
2023-05-23T01:20:22.261Z,14.40
2023-05-23T01:22:55.662Z,14.40
2023-05-23T01:25:28.724Z,16.90
2023-05-23T01:27:57.357Z,14.60
2023-05-23T01:30:25.344Z,16.80
2023-05-23T01:32:53.997Z,16.90
2023-05-23T01:35:24.799Z,16.30
2023-05-23T01:37:51.472Z,16.50
2023-05-23T01:40:18.286Z,14.50
2023-05-23T01:42:45.077Z,14.30
2023-05-23T01:45:12.798Z,14.10
2023-05-23T01:47:40.783Z,14.00
2023-05-23T01:50:09.175Z,15.60
2023-05-23T01:52:36.235Z,14.10
2023-05-23T01:55:06.627Z,14.10
2023-05-23T01:57:34.182Z,16.20
2023-05-23T02:00:00.956Z,14.40
2023-05-23T02:02:27.711Z,16.90
2023-05-23T02:04:54.409Z,14.70
2023-05-23T02:07:23.587Z,17.20
2023-05-23T02:09:50.375Z,14.90
2023-05-23T02:12:17.052Z,15.00
2023-05-23T02:14:43.821Z,15.00
2023-05-23T02:17:10.679Z,15.80
2023-05-23T02:19:38.317Z,15.10
2023-05-23T02:22:05.317Z,16.60
2023-05-23T02:24:32.043Z,15.30
2023-05-23T02:26:59.071Z,15.30
2023-05-23T02:29:25.834Z,15.30
2023-05-23T02:31:52.658Z,15.30
2023-05-23T02:34:19.398Z,15.20
2023-05-23T02:36:46.246Z,15.20
2023-05-23T02:39:13.280Z,15.30
2023-05-23T02:41:40.046Z,16.30
2023-05-23T02:44:06.872Z,15.50
2023-05-23T02:46:34.048Z,15.50
2023-05-23T02:49:01.230Z,15.60
2023-05-23T02:51:28.040Z,15.60
2023-05-23T02:53:55.060Z,17.50
2023-05-23T02:56:23.558Z,18.70
2023-05-23T02:58:50.490Z,15.70
2023-05-23T03:01:18.135Z,15.70
2023-05-23T03:03:44.937Z,15.70
2023-05-23T03:06:14.744Z,15.70
2023-05-23T03:08:42.104Z,16.40
2023-05-23T03:11:09.685Z,15.60
2023-05-23T03:13:36.518Z,15.60
2023-05-23T03:16:03.437Z,17.00
2023-05-23T03:18:30.251Z,17.40
2023-05-23T03:20:57.153Z,16.90
2023-05-23T03:23:23.991Z,15.60
2023-05-23T03:25:50.869Z,19.20
2023-05-23T03:28:17.616Z,15.70
2023-05-23T03:30:44.451Z,15.70
2023-05-23T03:33:11.418Z,16.20
2023-05-23T03:35:38.299Z,15.80
2023-05-23T03:38:05.501Z,17.60
2023-05-23T03:40:32.610Z,15.80
2023-05-23T03:43:03.917Z,15.70
2023-05-23T03:45:31.766Z,15.80
2023-05-23T03:47:59.398Z,15.80
2023-05-23T03:50:26.776Z,15.80
2023-05-23T03:52:54.183Z,15.80
2023-05-23T03:55:22.527Z,17.30
2023-05-23T03:57:49.611Z,17.50
2023-05-23T04:00:16.868Z,15.80
2023-05-23T04:02:44.056Z,15.80
2023-05-23T04:05:11.072Z,15.80
2023-05-23T04:07:38.565Z,17.00
2023-05-23T04:10:05.835Z,17.30
2023-05-23T04:12:32.718Z,15.90
2023-05-23T04:14:59.558Z,15.90
2023-05-23T04:17:30.919Z,17.00
2023-05-23T04:19:58.473Z,15.80
2023-05-23T04:22:25.410Z,17.20
2023-05-23T04:24:52.227Z,15.80
2023-05-23T04:27:19.940Z,18.40
2023-05-23T04:29:46.814Z,15.90
2023-05-23T04:32:14.799Z,18.10
2023-05-23T04:34:41.889Z,16.80
2023-05-23T04:37:09.807Z,15.90
2023-05-23T04:39:36.900Z,16.60
2023-05-23T04:42:03.612Z,19.30
2023-05-23T04:44:30.547Z,15.90
2023-05-23T04:46:57.796Z,15.80
2023-05-23T04:49:24.622Z,16.40
2023-05-23T04:51:51.373Z,16.10
2023-05-23T04:54:18.120Z,16.60
2023-05-23T04:56:45.060Z,15.70
2023-05-23T04:59:11.914Z,17.40
2023-05-23T05:01:41.877Z,15.70
2023-05-23T05:04:09.040Z,15.70
2023-05-23T05:06:36.116Z,15.70
2023-05-23T05:09:02.799Z,18.10
2023-05-23T05:11:29.599Z,18.20
2023-05-23T05:13:56.635Z,16.70
2023-05-23T05:16:23.539Z,15.60
2023-05-23T05:18:50.366Z,18.00
2023-05-23T05:21:17.186Z,18.80
2023-05-23T05:23:43.905Z,17.00
2023-05-23T05:26:10.574Z,17.10
2023-05-23T05:28:38.326Z,16.60
2023-05-23T05:31:05.703Z,18.30
2023-05-23T05:33:36.298Z,15.50
2023-05-23T05:36:04.122Z,15.60
2023-05-23T05:38:31.224Z,16.70
2023-05-23T05:40:57.984Z,17.60
2023-05-23T05:43:26.025Z,15.60
2023-05-23T05:45:52.829Z,16.20
2023-05-23T05:48:19.680Z,15.60
2023-05-23T05:50:46.945Z,17.80
2023-05-23T05:53:14.100Z,17.90
2023-05-23T05:55:41.467Z,15.50
2023-05-23T05:58:08.512Z,15.50
2023-05-23T06:00:42.300Z,15.50
2023-05-23T06:03:09.371Z,17.20
2023-05-23T06:05:37.735Z,17.30
2023-05-23T06:08:04.993Z,17.40
2023-05-23T06:10:31.852Z,15.40
2023-05-23T06:12:58.865Z,15.50
2023-05-23T06:15:26.468Z,18.60
2023-05-23T06:17:53.376Z,17.70
2023-05-23T06:20:20.109Z,16.10
2023-05-23T06:22:46.865Z,17.60
2023-05-23T06:25:13.890Z,16.80
2023-05-23T06:27:40.703Z,17.40
2023-05-23T06:30:07.995Z,18.30
2023-05-23T06:32:34.725Z,15.60
2023-05-23T06:35:02.152Z,15.50
2023-05-23T06:37:28.892Z,16.50
2023-05-23T06:39:55.731Z,17.40
2023-05-23T06:42:23.016Z,19.10
2023-05-23T06:44:49.712Z,15.60
2023-05-23T06:47:16.428Z,17.50
2023-05-23T06:49:43.363Z,15.60
2023-05-23T06:52:10.067Z,15.60
2023-05-23T06:54:36.781Z,16.90
2023-05-23T06:57:03.910Z,16.90
2023-05-23T06:59:30.663Z,15.60
2023-05-23T07:01:57.499Z,15.70
2023-05-23T07:04:24.234Z,15.70
2023-05-23T07:06:52.721Z,15.70
2023-05-23T07:09:19.761Z,13.60
2023-05-23T07:11:46.608Z,19.00
2023-05-23T07:14:13.349Z,15.80
2023-05-23T07:16:40.448Z,15.70
2023-05-23T07:19:07.547Z,15.70
2023-05-23T07:21:34.384Z,15.70
2023-05-23T07:24:01.081Z,16.50
2023-05-23T07:26:28.034Z,17.50
2023-05-23T07:28:54.775Z,16.50
2023-05-23T07:31:21.490Z,19.10
2023-05-23T07:33:48.256Z,18.00
2023-05-23T07:36:15.080Z,18.20
2023-05-23T07:38:41.768Z,19.10
2023-05-23T07:41:11.865Z,15.50
2023-05-23T07:43:39.465Z,18.70
2023-05-23T07:46:06.526Z,17.90
2023-05-23T07:48:33.330Z,15.40
2023-05-23T07:51:00.185Z,18.10
2023-05-23T07:53:26.837Z,17.90
2023-05-23T07:55:53.494Z,15.30
2023-05-23T07:58:20.301Z,15.80
2023-05-23T08:00:47.098Z,18.20
2023-05-23T08:03:14.130Z,16.60
2023-05-23T08:05:40.993Z,17.10
2023-05-23T08:08:07.731Z,17.90
2023-05-23T08:10:34.523Z,17.30
2023-05-23T08:13:04.612Z,16.50
2023-05-23T08:15:31.505Z,18.10
2023-05-23T08:17:58.983Z,17.40
2023-05-23T08:20:31.036Z,17.40
2023-05-23T08:22:58.784Z,17.50
2023-05-23T08:25:25.821Z,17.00
2023-05-23T08:27:52.581Z,16.70
2023-05-23T08:30:19.361Z,16.80
2023-05-23T08:32:46.084Z,17.00
2023-05-23T08:35:12.904Z,17.10
2023-05-23T08:37:39.746Z,18.20
2023-05-23T08:40:08.878Z,16.80
2023-05-23T08:42:35.575Z,15.50
2023-05-23T08:45:02.589Z,16.80
2023-05-23T08:47:30.922Z,17.80
2023-05-23T08:49:58.798Z,15.90
2023-05-23T08:52:28.361Z,16.60
2023-05-23T08:54:56.667Z,15.50
2023-05-23T08:57:24.250Z,17.00
2023-05-23T08:59:51.884Z,17.10
2023-05-23T09:02:18.824Z,18.50
2023-05-23T09:04:46.537Z,19.40
2023-05-23T09:07:15.647Z,16.70
2023-05-23T09:09:42.505Z,17.50
2023-05-23T09:12:10.534Z,15.60
2023-05-23T09:14:37.453Z,15.70
2023-05-23T09:17:04.904Z,16.90
2023-05-23T09:19:31.895Z,15.80
2023-05-23T09:21:59.309Z,15.80
2023-05-23T09:24:33.966Z,15.80
2023-05-23T09:27:01.810Z,17.90
2023-05-23T09:29:28.715Z,18.60
2023-05-23T09:32:00.009Z,16.80
2023-05-23T09:34:27.441Z,15.90
2023-05-23T09:36:55.790Z,16.40
2023-05-23T09:39:22.718Z,16.00
2023-05-23T09:41:49.783Z,16.00
2023-05-23T09:44:22.788Z,17.10
2023-05-23T09:46:52.989Z,16.00
2023-05-23T09:49:19.946Z,16.10
2023-05-23T09:51:57.231Z,17.10
2023-05-23T09:54:24.269Z,16.20
2023-05-23T09:56:52.883Z,16.30
2023-05-23T09:59:24.310Z,16.20
2023-05-23T10:01:52.081Z,16.30
2023-05-23T10:04:23.612Z,16.30
2023-05-23T10:06:55.005Z,16.40
2023-05-23T10:09:23.669Z,16.40
2023-05-23T10:12:09.205Z,16.40
2023-05-23T10:14:38.773Z,16.50
2023-05-23T10:17:12.071Z,17.10
2023-05-23T10:19:43.797Z,16.60
2023-05-23T10:22:12.491Z,16.60
2023-05-23T10:24:40.492Z,16.60
2023-05-23T10:27:08.124Z,16.70
2023-05-23T10:29:35.481Z,16.80
2023-05-23T10:32:03.555Z,16.90
2023-05-23T10:34:57.965Z,16.80
2023-05-23T10:37:29.808Z,16.90
2023-05-23T10:40:04.033Z,17.10
2023-05-23T10:45:07.598Z,17.40
2023-05-23T10:47:36.232Z,17.50
2023-05-23T10:50:03.153Z,18.70
2023-05-23T10:52:39.375Z,17.70
2023-05-23T10:55:17.788Z,17.50
2023-05-23T10:57:45.074Z,18.70
2023-05-23T11:00:16.033Z,17.30
2023-05-23T11:02:51.117Z,17.60
2023-05-23T11:05:22.844Z,17.70
2023-05-23T11:08:09.207Z,16.80
2023-05-23T11:10:54.927Z,17.70
2023-05-23T11:13:22.393Z,17.90
2023-05-23T11:15:49.458Z,17.80
2023-05-23T11:18:23.760Z,18.40
2023-05-23T11:20:54.617Z,17.30
2023-05-23T11:23:22.288Z,17.40
2023-05-23T11:25:50.009Z,18.00
2023-05-23T11:28:17.411Z,18.40
2023-05-23T11:30:44.300Z,18.20
2023-05-23T11:33:13.982Z,18.10
2023-05-23T11:35:45.440Z,18.10
2023-05-23T11:38:12.393Z,18.30
2023-05-23T11:40:40.386Z,18.00
2023-05-23T11:43:08.821Z,17.90
2023-05-23T11:45:36.769Z,18.10
2023-05-23T11:48:07.703Z,19.20
2023-05-23T11:50:35.075Z,17.80
2023-05-23T11:53:01.858Z,19.60
2023-05-23T11:55:28.626Z,18.70
2023-05-23T11:57:56.393Z,20.70
2023-05-23T12:00:23.120Z,19.50
2023-05-23T12:02:50.041Z,18.50
2023-05-23T12:05:17.246Z,18.10
2023-05-23T12:07:47.682Z,19.90
2023-05-23T12:10:15.086Z,18.00
2023-05-23T12:12:43.132Z,17.80
2023-05-23T12:15:10.371Z,17.80
2023-05-23T12:17:47.100Z,17.90
2023-05-23T12:20:14.309Z,18.00
2023-05-23T12:22:42.008Z,18.60
2023-05-23T12:25:09.773Z,19.70
2023-05-23T12:27:37.455Z,18.00
2023-05-23T12:30:24.471Z,19.70
2023-05-23T12:32:51.232Z,17.90
2023-05-23T12:35:18.179Z,18.90
2023-05-23T12:37:46.167Z,19.20
2023-05-23T12:40:13.134Z,18.90
2023-05-23T12:42:52.933Z,18.00
2023-05-23T12:45:23.439Z,17.70
2023-05-23T12:47:52.983Z,17.70
2023-05-23T12:50:20.737Z,17.90
2023-05-23T12:52:47.459Z,18.90
2023-05-23T12:55:14.470Z,18.40
2023-05-23T12:57:41.297Z,18.60
2023-05-23T13:00:08.604Z,19.20
2023-05-23T13:02:35.586Z,18.40
2023-05-23T13:05:02.289Z,18.30
2023-05-23T13:07:29.645Z,18.20
2023-05-23T13:09:56.813Z,19.10
2023-05-23T13:12:23.906Z,17.90
2023-05-23T13:14:51.249Z,18.30
2023-05-23T13:17:17.943Z,18.10
2023-05-23T13:19:44.784Z,18.10
2023-05-23T13:22:11.805Z,21.40
2023-05-23T13:24:38.637Z,18.10
2023-05-23T13:27:05.926Z,19.30
2023-05-23T13:29:32.815Z,18.50
2023-05-23T13:31:59.638Z,21.30
2023-05-23T13:34:27.349Z,20.50
2023-05-23T13:36:54.696Z,18.50
2023-05-23T13:39:22.787Z,18.80
2023-05-23T13:41:50.366Z,18.50
2023-05-23T13:44:17.081Z,18.40
2023-05-23T13:46:44.025Z,19.60
2023-05-23T13:49:10.726Z,19.20
2023-05-23T13:51:37.568Z,18.60
2023-05-23T13:54:04.947Z,20.90
2023-05-23T13:56:32.295Z,18.50
2023-05-23T13:58:59.376Z,18.30
2023-05-23T14:01:26.063Z,20.40
2023-05-23T14:03:53.030Z,19.00
2023-05-23T14:06:19.728Z,18.30
2023-05-23T14:08:46.758Z,18.20
2023-05-23T14:11:13.522Z,18.30
2023-05-23T14:13:40.194Z,18.20
2023-05-23T14:16:07.332Z,19.00
2023-05-23T14:18:34.298Z,18.10
2023-05-23T14:21:01.406Z,18.10
2023-05-23T14:23:28.213Z,18.40
2023-05-23T14:25:55.118Z,18.10
2023-05-23T14:28:21.798Z,19.40
2023-05-23T14:30:48.473Z,17.60
2023-05-23T14:33:15.543Z,19.40
2023-05-23T14:35:43.386Z,17.60
2023-05-23T14:38:10.450Z,17.60
2023-05-23T14:40:37.156Z,17.70
2023-05-23T14:43:03.823Z,19.40
2023-05-23T14:45:31.667Z,18.90
2023-05-23T14:47:58.699Z,20.90
2023-05-23T14:50:28.506Z,20.30
2023-05-23T14:52:55.378Z,17.90
2023-05-23T14:55:22.078Z,20.70
2023-05-23T14:57:48.790Z,17.80
2023-05-23T15:00:15.842Z,19.50
2023-05-23T15:02:42.558Z,17.80
2023-05-23T15:05:09.484Z,21.10
2023-05-23T15:07:36.189Z,17.80
2023-05-23T15:10:03.476Z,17.90
2023-05-23T15:12:30.508Z,17.90
2023-05-23T15:15:03.367Z,20.10
2023-05-23T15:17:30.873Z,18.30
2023-05-23T15:19:57.918Z,19.40
2023-05-23T15:22:37.825Z,19.30
2023-05-23T15:25:06.808Z,21.70
2023-05-23T15:27:33.482Z,18.10
2023-05-23T15:30:00.247Z,20.80
2023-05-23T15:32:26.976Z,18.00
2023-05-23T15:34:53.840Z,17.70
2023-05-23T15:37:20.665Z,17.70
2023-05-23T15:39:48.685Z,17.60
2023-05-23T15:42:15.934Z,17.50
2023-05-23T15:44:42.847Z,17.50
2023-05-23T15:47:10.124Z,18.70
2023-05-23T15:49:36.848Z,17.60
2023-05-23T15:52:03.578Z,17.70
2023-05-23T15:54:30.338Z,17.70
2023-05-23T15:56:56.957Z,17.90
2023-05-23T15:59:23.614Z,19.70
2023-05-23T16:01:50.584Z,18.10
2023-05-23T16:04:17.336Z,18.10
2023-05-23T16:06:44.352Z,20.10
2023-05-23T16:09:11.297Z,18.70
2023-05-23T16:11:38.040Z,18.40
2023-05-23T16:14:05.714Z,18.90
2023-05-23T16:16:32.426Z,19.80
2023-05-23T16:18:59.136Z,19.70
2023-05-23T16:21:26.025Z,19.10
2023-05-23T16:23:52.834Z,20.10
2023-05-23T16:26:19.827Z,18.20
2023-05-23T16:28:46.638Z,20.30
2023-05-23T16:31:14.411Z,18.10
2023-05-23T16:33:41.388Z,18.00
2023-05-23T16:36:08.128Z,18.70
2023-05-23T16:38:34.896Z,17.90
2023-05-23T16:41:01.659Z,17.90
2023-05-23T16:43:28.441Z,18.20
2023-05-23T16:45:55.105Z,18.70
2023-05-23T16:48:22.275Z,17.80
2023-05-23T16:50:48.883Z,17.80
2023-05-23T16:53:15.897Z,18.00
2023-05-23T16:55:42.674Z,17.50
2023-05-23T16:58:09.557Z,17.50
2023-05-23T17:00:36.453Z,19.40
2023-05-23T17:03:03.301Z,19.70
2023-05-23T17:05:30.047Z,17.30
2023-05-23T17:07:56.947Z,18.90
2023-05-23T17:10:23.749Z,17.30
2023-05-23T17:12:50.798Z,17.20
2023-05-23T17:15:17.414Z,17.70
2023-05-23T17:17:44.264Z,19.50
2023-05-23T17:20:11.601Z,19.10
2023-05-23T17:22:38.430Z,17.10
2023-05-23T17:25:06.462Z,17.10
2023-05-23T17:27:33.501Z,17.20
2023-05-23T17:30:00.294Z,18.20
2023-05-23T17:32:28.219Z,17.30
2023-05-23T17:34:55.167Z,19.60
2023-05-23T17:37:21.906Z,17.90
2023-05-23T17:39:51.139Z,18.80
2023-05-23T17:42:18.273Z,17.20
2023-05-23T17:44:44.977Z,17.90
2023-05-23T17:47:11.678Z,17.20
2023-05-23T17:49:38.832Z,19.00
2023-05-23T17:52:07.036Z,19.70
2023-05-23T17:54:33.865Z,17.20
2023-05-23T17:57:00.739Z,18.80
2023-05-23T17:59:28.231Z,17.10
2023-05-23T18:01:54.911Z,17.20
2023-05-23T18:04:22.212Z,16.60
2023-05-23T18:06:49.192Z,16.50
2023-05-23T18:09:16.679Z,16.40
2023-05-23T18:11:43.431Z,16.30
2023-05-23T18:14:10.282Z,17.70
2023-05-23T18:16:37.521Z,16.80
2023-05-23T18:19:04.989Z,16.10
2023-05-23T18:21:32.657Z,16.00
2023-05-23T18:23:59.362Z,15.80
2023-05-23T18:26:26.016Z,17.00
2023-05-23T18:28:52.972Z,15.70
2023-05-23T18:31:19.914Z,15.60
2023-05-23T18:33:46.788Z,15.50
2023-05-23T18:36:13.570Z,16.00
2023-05-23T18:38:41.892Z,16.00
2023-05-23T18:41:13.938Z,17.30
2023-05-23T18:43:41.412Z,15.20
2023-05-23T18:46:08.591Z,16.20
2023-05-23T18:48:36.087Z,15.70
2023-05-23T18:51:02.898Z,17.30
2023-05-23T18:53:29.534Z,15.80
2023-05-23T18:55:56.186Z,14.90
2023-05-23T18:58:23.028Z,15.00
2023-05-23T19:00:50.000Z,14.70
2023-05-23T19:03:17.186Z,16.20
2023-05-23T19:05:44.164Z,14.60
2023-05-23T19:08:10.999Z,14.50
2023-05-23T19:10:37.884Z,14.50
2023-05-23T19:13:04.897Z,14.40
2023-05-23T19:15:31.965Z,14.30
2023-05-23T19:17:58.692Z,14.30
2023-05-23T19:20:26.030Z,14.20
2023-05-23T19:22:53.063Z,14.20
2023-05-23T19:25:20.505Z,14.80
2023-05-23T19:27:47.212Z,14.00
2023-05-23T19:30:13.908Z,16.10
2023-05-23T19:32:40.685Z,13.90
2023-05-23T19:35:08.470Z,14.40
2023-05-23T19:37:35.279Z,13.80
2023-05-23T19:40:02.424Z,13.90
2023-05-23T19:42:29.131Z,13.80
2023-05-23T19:44:55.788Z,13.90
2023-05-23T19:47:22.570Z,13.80
2023-05-23T19:49:49.456Z,13.70
2023-05-23T19:52:16.135Z,13.80
2023-05-23T19:54:43.107Z,13.80
2023-05-23T19:57:09.881Z,15.50
2023-05-23T19:59:36.570Z,13.70
2023-05-23T20:02:03.231Z,13.70
2023-05-23T20:04:29.847Z,13.70
2023-05-23T20:06:56.722Z,13.60
2023-05-23T20:09:23.565Z,13.60
2023-05-23T20:11:50.186Z,13.60
2023-05-23T20:14:17.038Z,15.30
2023-05-23T20:16:43.932Z,13.50
2023-05-23T20:19:10.780Z,14.50
2023-05-23T20:21:37.954Z,14.60
2023-05-23T20:24:04.752Z,13.40
2023-05-23T20:26:31.518Z,13.40
2023-05-23T20:28:58.444Z,14.10
2023-05-23T20:31:25.205Z,13.30
2023-05-23T20:33:52.521Z,14.90
2023-05-23T20:36:20.923Z,13.60
2023-05-23T20:38:48.055Z,13.30
2023-05-23T20:41:14.889Z,13.30
2023-05-23T20:43:41.861Z,14.90
2023-05-23T20:46:10.247Z,13.40
2023-05-23T20:48:36.904Z,14.60
2023-05-23T20:51:05.724Z,13.40
2023-05-23T20:53:32.425Z,13.50
2023-05-23T20:55:59.335Z,13.40
2023-05-23T20:58:26.299Z,13.40
2023-05-23T21:00:53.349Z,13.40
2023-05-23T21:03:20.031Z,13.50
2023-05-23T21:05:46.648Z,13.40
2023-05-23T21:08:13.383Z,13.40
2023-05-23T21:10:40.154Z,13.40
2023-05-23T21:13:06.917Z,13.40
2023-05-23T21:15:33.968Z,14.80
2023-05-23T21:18:00.963Z,13.40
2023-05-23T21:20:29.286Z,14.40
2023-05-23T21:22:56.028Z,13.40
2023-05-23T21:25:22.897Z,15.90
2023-05-23T21:27:49.566Z,13.50
2023-05-23T21:30:16.448Z,13.40
2023-05-23T21:32:43.619Z,13.40
2023-05-23T21:35:10.468Z,13.40
2023-05-23T21:37:37.296Z,13.40
2023-05-23T21:40:04.336Z,13.40
2023-05-23T21:42:31.044Z,13.40
2023-05-23T21:44:57.956Z,13.60
2023-05-23T21:47:25.132Z,13.40
2023-05-23T21:49:52.085Z,13.40
2023-05-23T21:52:18.794Z,14.50
2023-05-23T21:54:48.843Z,13.30
2023-05-23T21:57:16.161Z,13.50
2023-05-23T21:59:42.993Z,13.30
2023-05-23T22:02:11.650Z,13.30
2023-05-23T22:04:38.629Z,13.40
2023-05-23T22:07:05.562Z,15.30
2023-05-23T22:09:32.629Z,15.30
2023-05-23T22:11:59.258Z,13.30
2023-05-23T22:14:26.196Z,15.40
2023-05-23T22:16:52.837Z,13.30
2023-05-23T22:19:21.306Z,13.30
2023-05-23T22:21:48.161Z,13.20
2023-05-23T22:24:15.007Z,13.20
2023-05-23T22:26:41.758Z,13.20
2023-05-23T22:29:08.522Z,13.20
2023-05-23T22:31:35.536Z,13.20
2023-05-23T22:34:02.396Z,13.10
2023-05-23T22:36:29.081Z,13.00
2023-05-23T22:38:56.490Z,13.00
2023-05-23T22:41:23.698Z,15.00
2023-05-23T22:43:50.952Z,14.40
2023-05-23T22:46:18.108Z,12.80
2023-05-23T22:48:45.128Z,12.80
2023-05-23T22:51:14.352Z,12.80
2023-05-23T22:53:41.476Z,14.20
2023-05-23T22:56:08.284Z,12.60
2023-05-23T22:58:35.051Z,14.30
2023-05-23T23:01:01.836Z,12.50
2023-05-23T23:03:29.060Z,12.50
2023-05-23T23:05:55.769Z,12.50
2023-05-23T23:08:22.501Z,14.00
2023-05-23T23:10:49.269Z,12.40
2023-05-23T23:13:16.020Z,12.40
2023-05-23T23:15:43.087Z,12.40
2023-05-23T23:18:10.221Z,12.40
2023-05-23T23:20:37.175Z,12.40
2023-05-23T23:23:03.990Z,12.40
2023-05-23T23:25:30.913Z,13.70
2023-05-23T23:27:57.595Z,14.10
2023-05-23T23:30:24.722Z,12.30
2023-05-23T23:32:51.771Z,11.90
2023-05-23T23:35:18.537Z,12.20
2023-05-23T23:37:45.237Z,12.20
2023-05-23T23:40:12.300Z,12.20
2023-05-23T23:42:39.057Z,12.10
2023-05-23T23:45:06.389Z,12.10
2023-05-23T23:47:33.347Z,12.10
2023-05-23T23:50:00.065Z,12.40
2023-05-23T23:52:28.127Z,12.10
2023-05-23T23:54:55.072Z,12.10
2023-05-23T23:57:21.906Z,12.20
2023-05-23T23:59:48.978Z,12.90
